CheckWX is a tool to help pilots better visualize weather data.  It is not intended as a substitute for an official pre-flight weather briefing.

02:37:42 UTC

CYWA TAF
Petawawa Airport
Petawawa, Canada
TAF CYWA 222330Z 2300/2312 VRB03KT P6SM BKN120 BECMG 2310/2312 13008KT BKN080 RMK FCST BASED ON AUTO OBS. NXT FCST BY 230600Z

Apr-23@
00:00 UTC

Apr-23 @ 00:00 UTC

Apr-23@
10:00 UTC

Apr-23 @ 10:00 UTC

TAF CYWA 222330Z 2300/2312 VRB03KT P6SM BKN120
Wind
  • Variable at 3 KTS
Cloud Levels
  • Broken at 12,000' AGL

Apr-23@
10:00 UTC

Apr-23 @ 10:00 UTC

Apr-23@
12:00 UTC

Apr-23 @ 12:00 UTC

BECMG 2310/2312 13008KT BKN080 RMK FCST BASED ON AUTO OBS. NXT FCST BY 230600Z

Becoming

Becoming Conditions expected by Tue, Apr 23, 2019 @ 12:00 UTC

Wind
  • 130° at 8 KTS
Cloud Levels
  • Broken at 8,000' AGL